createdAt,value
2023-02-02T00:00:18.217Z,51.216084
2023-02-02T00:01:18.206Z,51.216007
2023-02-02T00:02:18.202Z,51.216156
2023-02-02T00:03:18.198Z,51.216129
2023-02-02T00:04:18.184Z,51.216091
2023-02-02T00:05:18.201Z,51.216148
2023-02-02T00:06:18.199Z,51.216084
2023-02-02T00:07:18.170Z,51.216042
2023-02-02T00:08:18.189Z,51.216076
2023-02-02T00:09:18.157Z,51.215984
2023-02-02T00:10:18.149Z,51.216003
2023-02-02T00:11:18.178Z,51.215919
2023-02-02T00:12:18.132Z,51.215942
2023-02-02T00:13:18.140Z,51.215870
2023-02-02T00:14:18.118Z,51.215916
2023-02-02T00:15:18.113Z,51.215969
2023-02-02T00:16:18.167Z,51.215836
2023-02-02T00:17:18.106Z,51.215881
2023-02-02T00:18:18.090Z,51.215855
2023-02-02T00:19:18.093Z,51.215950
2023-02-02T00:20:18.087Z,51.215950
2023-02-02T00:21:18.097Z,51.215961
2023-02-02T00:22:18.076Z,51.216015
2023-02-02T00:23:18.065Z,51.215992
2023-02-02T00:24:18.092Z,51.215996
2023-02-02T00:25:18.049Z,51.216087
2023-02-02T00:26:18.098Z,51.216198
2023-02-02T00:27:18.052Z,51.216244
2023-02-02T00:28:18.029Z,51.216206
2023-02-02T00:29:18.026Z,51.216175
2023-02-02T00:30:18.018Z,51.216106
2023-02-02T00:31:18.044Z,51.216202
2023-02-02T00:32:18.012Z,51.216171
2023-02-02T00:33:17.997Z,51.216103
2023-02-02T00:34:18.005Z,51.216038
2023-02-02T00:35:17.989Z,51.215965
2023-02-02T00:36:17.981Z,51.215950
2023-02-02T00:37:17.981Z,51.216003
2023-02-02T00:38:17.961Z,51.215904
2023-02-02T00:39:17.955Z,51.215881
2023-02-02T00:40:17.937Z,51.215904
2023-02-02T00:41:17.941Z,51.215683
2023-02-02T00:42:17.929Z,51.215485
2023-02-02T00:43:17.948Z,51.215633
2023-02-02T00:44:17.926Z,51.215969
2023-02-02T00:45:17.941Z,51.216038
2023-02-02T00:46:17.932Z,51.216045
2023-02-02T00:47:17.901Z,51.216118
2023-02-02T00:48:17.903Z,51.216148
2023-02-02T00:49:17.893Z,51.216099
2023-02-02T00:50:17.893Z,51.216152
2023-02-02T00:51:17.866Z,51.216160
2023-02-02T00:52:17.870Z,51.216148
2023-02-02T00:53:17.866Z,51.216125
2023-02-02T00:54:17.865Z,51.216194
2023-02-02T00:55:17.865Z,51.216221
2023-02-02T00:56:18.843Z,51.216301
2023-02-02T00:57:17.841Z,51.216358
2023-02-02T00:58:17.831Z,51.216118
2023-02-02T00:59:17.821Z,51.215900
2023-02-02T01:00:17.839Z,51.215866
2023-02-02T01:01:17.842Z,51.215973
2023-02-02T01:02:17.871Z,51.216080
2023-02-02T01:03:17.797Z,51.216198
2023-02-02T01:04:17.792Z,51.216064
2023-02-02T01:05:17.797Z,51.216042
2023-02-02T01:06:17.773Z,51.216125
2023-02-02T01:07:17.772Z,51.216248
2023-02-02T01:08:17.762Z,51.216225
2023-02-02T01:09:17.763Z,51.216167
2023-02-02T01:10:17.756Z,51.216110
2023-02-02T01:11:17.768Z,51.216358
2023-02-02T01:12:17.734Z,51.216152
2023-02-02T01:13:17.725Z,51.216152
2023-02-02T01:14:17.728Z,51.216255
2023-02-02T01:15:17.738Z,51.216297
2023-02-02T01:16:17.752Z,51.216396
2023-02-02T01:17:17.714Z,51.215900
2023-02-02T01:18:17.702Z,51.216118
2023-02-02T01:19:17.686Z,51.216095
2023-02-02T01:20:17.720Z,51.215935
2023-02-02T01:21:17.688Z,51.215706
2023-02-02T01:22:17.678Z,51.215588
2023-02-02T01:23:17.653Z,51.215668
2023-02-02T01:24:17.654Z,51.215626
2023-02-02T01:25:17.657Z,51.215797
2023-02-02T01:26:17.665Z,51.216103
2023-02-02T01:27:17.636Z,51.216034
2023-02-02T01:28:17.653Z,51.215878
2023-02-02T01:29:17.629Z,51.215820
2023-02-02T01:30:17.633Z,51.216007
2023-02-02T01:31:17.612Z,51.216045
2023-02-02T01:32:17.623Z,51.216057
2023-02-02T01:33:17.594Z,51.216244
2023-02-02T01:34:17.599Z,51.216225
2023-02-02T01:35:17.589Z,51.216141
2023-02-02T01:36:17.586Z,51.216022
2023-02-02T01:37:17.605Z,51.215973
2023-02-02T01:38:17.580Z,51.216022
2023-02-02T01:39:17.624Z,51.215755
2023-02-02T01:40:17.566Z,51.215801
2023-02-02T01:41:17.556Z,51.215797
2023-02-02T01:42:17.540Z,51.215935
2023-02-02T01:43:17.545Z,51.216011
2023-02-02T01:44:17.536Z,51.216057
2023-02-02T01:45:17.564Z,51.216194
2023-02-02T01:46:17.517Z,51.216015
2023-02-02T01:47:17.508Z,51.215992
2023-02-02T01:48:17.487Z,51.215935
2023-02-02T01:49:18.516Z,51.216053
2023-02-02T01:50:17.504Z,51.215881
2023-02-02T01:51:17.485Z,51.215878
2023-02-02T01:52:17.476Z,51.215935
2023-02-02T01:53:17.475Z,51.215885
2023-02-02T01:54:17.487Z,51.215786
2023-02-02T01:55:17.470Z,51.215824
2023-02-02T01:56:17.447Z,51.215740
2023-02-02T01:57:17.453Z,51.215847
2023-02-02T01:58:17.442Z,51.216114
2023-02-02T01:59:17.439Z,51.216213
2023-02-02T02:00:17.430Z,51.216152
2023-02-02T02:01:17.467Z,51.216290
2023-02-02T02:02:17.428Z,51.216190
2023-02-02T02:03:17.408Z,51.216240
2023-02-02T02:04:17.391Z,51.216320
2023-02-02T02:05:17.415Z,51.216255
2023-02-02T02:06:17.406Z,51.215866
2023-02-02T02:07:17.378Z,51.215805
2023-02-02T02:08:17.373Z,51.215794
2023-02-02T02:09:17.381Z,51.215721
2023-02-02T02:10:17.369Z,51.215862
2023-02-02T02:11:17.362Z,51.215481
2023-02-02T02:12:17.354Z,51.215508
2023-02-02T02:13:17.344Z,51.216091
2023-02-02T02:14:17.333Z,51.216164
2023-02-02T02:15:17.347Z,51.216022
2023-02-02T02:16:17.355Z,51.216064
2023-02-02T02:17:17.349Z,51.216068
2023-02-02T02:18:17.318Z,51.215981
2023-02-02T02:19:17.303Z,51.216160
2023-02-02T02:20:17.308Z,51.216076
2023-02-02T02:21:17.298Z,51.216042
2023-02-02T02:22:17.304Z,51.216324
2023-02-02T02:23:17.279Z,51.216057
2023-02-02T02:24:17.287Z,51.215916
2023-02-02T02:25:17.259Z,51.215839
2023-02-02T02:26:17.280Z,51.215839
2023-02-02T02:27:17.254Z,51.215771
2023-02-02T02:28:17.247Z,51.215919
2023-02-02T02:29:17.248Z,51.215775
2023-02-02T02:30:17.229Z,51.215889
2023-02-02T02:31:17.389Z,51.215954
2023-02-02T02:32:17.210Z,51.215816
2023-02-02T02:33:17.219Z,51.215828
2023-02-02T02:34:17.200Z,51.216030
2023-02-02T02:35:17.201Z,51.216316
2023-02-02T02:36:17.380Z,51.216331
2023-02-02T02:37:17.201Z,51.216236
2023-02-02T02:38:17.171Z,51.216316
2023-02-02T02:39:17.163Z,51.216351
2023-02-02T02:40:17.155Z,51.216129
2023-02-02T02:41:17.165Z,51.216061
2023-02-02T02:42:17.168Z,51.216190
2023-02-02T02:43:17.136Z,51.216221
2023-02-02T02:44:17.163Z,51.216244
2023-02-02T02:45:17.132Z,51.216053
2023-02-02T02:46:17.137Z,51.216034
2023-02-02T02:47:17.136Z,51.216007
2023-02-02T02:48:17.125Z,51.216030
2023-02-02T02:49:17.122Z,51.216007
2023-02-02T02:50:17.087Z,51.215969
2023-02-02T02:51:17.093Z,51.215843
2023-02-02T02:52:17.090Z,51.216099
2023-02-02T02:53:17.108Z,51.216259
2023-02-02T02:54:17.060Z,51.216137
2023-02-02T02:55:17.069Z,51.216122
2023-02-02T02:56:17.064Z,51.216091
2023-02-02T02:57:17.055Z,51.216225
2023-02-02T02:58:17.073Z,51.216099
2023-02-02T02:59:17.039Z,51.216110
2023-02-02T03:00:17.045Z,51.216026
2023-02-02T03:01:17.060Z,51.216080
2023-02-02T03:02:17.106Z,51.215984
2023-02-02T03:03:17.027Z,51.216084
2023-02-02T03:04:17.020Z,51.216125
2023-02-02T03:05:17.001Z,51.216209
2023-02-02T03:06:17.015Z,51.216255
2023-02-02T03:07:17.008Z,51.216251
2023-02-02T03:08:16.985Z,51.216160
2023-02-02T03:09:16.988Z,51.216183
2023-02-02T03:10:16.978Z,51.216183
2023-02-02T03:11:16.984Z,51.216114
2023-02-02T03:12:16.959Z,51.216072
2023-02-02T03:13:16.965Z,51.216118
2023-02-02T03:14:16.956Z,51.216171
2023-02-02T03:15:16.964Z,51.216194
2023-02-02T03:16:16.935Z,51.216316
2023-02-02T03:17:16.924Z,51.216236
2023-02-02T03:18:16.926Z,51.216179
2023-02-02T03:19:16.917Z,51.216213
2023-02-02T03:20:16.911Z,51.216228
2023-02-02T03:21:17.923Z,51.216179
2023-02-02T03:22:16.903Z,51.216095
2023-02-02T03:23:16.926Z,51.215919
2023-02-02T03:24:16.885Z,51.215942
2023-02-02T03:25:16.877Z,51.216061
2023-02-02T03:26:16.893Z,51.216110
2023-02-02T03:27:16.856Z,51.216110
2023-02-02T03:28:16.857Z,51.216114
2023-02-02T03:29:16.852Z,51.216118
2023-02-02T03:30:16.847Z,51.216034
2023-02-02T03:31:16.865Z,51.215977
2023-02-02T03:32:16.832Z,51.216015
2023-02-02T03:33:16.823Z,51.216061
2023-02-02T03:34:16.812Z,51.216122
2023-02-02T03:35:16.832Z,51.216084
2023-02-02T03:36:16.818Z,51.216125
2023-02-02T03:37:16.792Z,51.216194
2023-02-02T03:38:16.784Z,51.216011
2023-02-02T03:39:16.787Z,51.216152
2023-02-02T03:40:16.768Z,51.216148
2023-02-02T03:41:16.790Z,51.216160
2023-02-02T03:42:16.756Z,51.216125
2023-02-02T03:43:16.756Z,51.216034
2023-02-02T03:44:16.760Z,51.215996
2023-02-02T03:45:16.744Z,51.216000
2023-02-02T03:46:16.793Z,51.215912
2023-02-02T03:47:16.732Z,51.216049
2023-02-02T03:48:16.718Z,51.215897
2023-02-02T03:49:16.714Z,51.215904
2023-02-02T03:50:17.716Z,51.215981
2023-02-02T03:51:16.708Z,51.216099
2023-02-02T03:52:16.696Z,51.216087
2023-02-02T03:53:16.700Z,51.215996
2023-02-02T03:54:16.682Z,51.216030
2023-02-02T03:55:16.683Z,51.215973
2023-02-02T03:56:16.666Z,51.215981
2023-02-02T03:57:16.675Z,51.216000
2023-02-02T03:58:16.652Z,51.216026
2023-02-02T03:59:16.647Z,51.216022
2023-02-02T04:00:16.651Z,51.215992
2023-02-02T04:01:16.643Z,51.216022
2023-02-02T04:02:16.645Z,51.215908
2023-02-02T04:03:16.628Z,51.215965
2023-02-02T04:04:16.621Z,51.215973
2023-02-02T04:05:16.613Z,51.215961
2023-02-02T04:06:16.605Z,51.215927
2023-02-02T04:07:16.595Z,51.216019
2023-02-02T04:08:16.600Z,51.215977
2023-02-02T04:09:16.595Z,51.216122
2023-02-02T04:10:16.597Z,51.216114
2023-02-02T04:11:16.588Z,51.216122
2023-02-02T04:12:16.567Z,51.216175
2023-02-02T04:13:16.569Z,51.216076
2023-02-02T04:14:16.547Z,51.216087
2023-02-02T04:15:16.552Z,51.216125
2023-02-02T04:16:16.574Z,51.216064
2023-02-02T04:17:16.519Z,51.215950
2023-02-02T04:18:16.528Z,51.215881
2023-02-02T04:19:16.495Z,51.216061
2023-02-02T04:20:17.513Z,51.216076
2023-02-02T04:21:16.504Z,51.216164
2023-02-02T04:22:16.497Z,51.216133
2023-02-02T04:23:16.509Z,51.216156
2023-02-02T04:24:16.483Z,51.216106
2023-02-02T04:25:16.485Z,51.216053
2023-02-02T04:26:16.541Z,51.216011
2023-02-02T04:27:16.471Z,51.216129
2023-02-02T04:28:16.492Z,51.216152
2023-02-02T04:29:16.459Z,51.216217
2023-02-02T04:30:16.457Z,51.216183
2023-02-02T04:31:16.563Z,51.216129
2023-02-02T04:32:16.454Z,51.216087
2023-02-02T04:33:16.436Z,51.216087
2023-02-02T04:34:16.432Z,51.216057
2023-02-02T04:35:16.419Z,51.216145
2023-02-02T04:36:16.408Z,51.216118
2023-02-02T04:37:16.399Z,51.216148
2023-02-02T04:38:16.406Z,51.216125
2023-02-02T04:39:16.404Z,51.216103
2023-02-02T04:40:16.390Z,51.216175
2023-02-02T04:41:16.372Z,51.216003
2023-02-02T04:42:16.376Z,51.215916
2023-02-02T04:43:16.371Z,51.215763
2023-02-02T04:44:16.380Z,51.215923
2023-02-02T04:45:16.368Z,51.216003
2023-02-02T04:46:16.443Z,51.215557
2023-02-02T04:47:16.352Z,51.215813
2023-02-02T04:48:16.522Z,51.215881
2023-02-02T04:49:16.348Z,51.215565
2023-02-02T04:50:16.341Z,51.215565
2023-02-02T04:51:16.313Z,51.215775
2023-02-02T04:52:16.303Z,51.215958
2023-02-02T04:53:16.297Z,51.216053
2023-02-02T04:54:16.294Z,51.215969
2023-02-02T04:55:16.296Z,51.216007
2023-02-02T04:56:16.323Z,51.216091
2023-02-02T04:57:16.276Z,51.216072
2023-02-02T04:58:16.266Z,51.216103
2023-02-02T04:59:16.262Z,51.216087
2023-02-02T05:00:16.276Z,51.216049
2023-02-02T05:01:16.371Z,51.216061
2023-02-02T05:02:16.244Z,51.216141
2023-02-02T05:03:16.236Z,51.215984
2023-02-02T05:04:16.259Z,51.216293
2023-02-02T05:05:16.221Z,51.216164
2023-02-02T05:06:16.239Z,51.215855
2023-02-02T05:07:16.219Z,51.216087
2023-02-02T05:08:16.201Z,51.216095
2023-02-02T05:09:16.188Z,51.216125
2023-02-02T05:10:16.189Z,51.215927
2023-02-02T05:11:16.196Z,51.216103
2023-02-02T05:12:16.156Z,51.216274
2023-02-02T05:13:16.169Z,51.215809
2023-02-02T05:14:16.175Z,51.215675
2023-02-02T05:15:16.163Z,51.215843
2023-02-02T05:16:16.208Z,51.215607
2023-02-02T05:17:16.149Z,51.216179
2023-02-02T05:18:16.141Z,51.216221
2023-02-02T05:19:16.134Z,51.216007
2023-02-02T05:20:16.112Z,51.216057
2023-02-02T05:21:16.117Z,51.216091
2023-02-02T05:22:16.124Z,51.216156
2023-02-02T05:23:16.100Z,51.215981
2023-02-02T05:24:16.097Z,51.216057
2023-02-02T05:25:16.104Z,51.216209
2023-02-02T05:26:16.089Z,51.216274
2023-02-02T05:27:16.076Z,51.216011
2023-02-02T05:28:16.082Z,51.216061
2023-02-02T05:29:16.059Z,51.216125
2023-02-02T05:30:16.282Z,51.216076
2023-02-02T05:31:16.121Z,51.216118
2023-02-02T05:32:16.036Z,51.216141
2023-02-02T05:33:16.057Z,51.216145
2023-02-02T05:34:16.041Z,51.216045
2023-02-02T05:35:16.040Z,51.216106
2023-02-02T05:36:16.033Z,51.216122
2023-02-02T05:37:16.013Z,51.215931
2023-02-02T05:38:16.002Z,51.215931
2023-02-02T05:39:16.034Z,51.215912
2023-02-02T05:40:16.002Z,51.215992
2023-02-02T05:41:15.989Z,51.216076
2023-02-02T05:42:15.978Z,51.215954
2023-02-02T05:43:15.980Z,51.215958
2023-02-02T05:44:15.976Z,51.215954
2023-02-02T05:45:15.964Z,51.215881
2023-02-02T05:46:16.030Z,51.215832
2023-02-02T05:47:15.942Z,51.215908
2023-02-02T05:48:15.937Z,51.215927
2023-02-02T05:49:15.955Z,51.215977
2023-02-02T05:50:15.928Z,51.215988
2023-02-02T05:51:15.916Z,51.216045
2023-02-02T05:52:16.917Z,51.216030
2023-02-02T05:53:15.911Z,51.216000
2023-02-02T05:54:15.928Z,51.215988
2023-02-02T05:55:15.939Z,51.215900
2023-02-02T05:56:16.045Z,51.215973
2023-02-02T05:57:15.880Z,51.215919
2023-02-02T05:58:15.871Z,51.216045
2023-02-02T05:59:16.880Z,51.216118
2023-02-02T06:00:15.866Z,51.216164
2023-02-02T06:01:15.853Z,51.216015
2023-02-02T06:02:15.871Z,51.215923
2023-02-02T06:03:16.070Z,51.215984
2023-02-02T06:04:15.909Z,51.216106
2023-02-02T06:05:15.836Z,51.216202
2023-02-02T06:06:15.835Z,51.216278
2023-02-02T06:07:15.837Z,51.216293
2023-02-02T06:08:15.858Z,51.216202
2023-02-02T06:09:15.819Z,51.216175
2023-02-02T06:10:15.836Z,51.216187
2023-02-02T06:11:15.793Z,51.216175
2023-02-02T06:12:15.785Z,51.216141
2023-02-02T06:13:15.772Z,51.216160
2023-02-02T06:14:15.777Z,51.216167
2023-02-02T06:15:15.762Z,51.216202
2023-02-02T06:16:15.798Z,51.216080
2023-02-02T06:17:15.749Z,51.216118
2023-02-02T06:18:15.748Z,51.216068
2023-02-02T06:19:15.772Z,51.216064
2023-02-02T06:20:15.745Z,51.216164
2023-02-02T06:21:15.734Z,51.216175
2023-02-02T06:22:15.723Z,51.216095
2023-02-02T06:23:15.710Z,51.216084
2023-02-02T06:24:15.713Z,51.216148
2023-02-02T06:25:15.834Z,51.216053
2023-02-02T06:26:15.699Z,51.216114
2023-02-02T06:27:15.703Z,51.216209
2023-02-02T06:28:15.688Z,51.216110
2023-02-02T06:29:15.692Z,51.216141
2023-02-02T06:30:15.670Z,51.216125
2023-02-02T06:31:15.750Z,51.216171
2023-02-02T06:32:15.661Z,51.216137
2023-02-02T06:33:15.664Z,51.216064
2023-02-02T06:34:15.655Z,51.216080
2023-02-02T06:35:15.646Z,51.216106
2023-02-02T06:36:15.643Z,51.216064
2023-02-02T06:37:15.629Z,51.216072
2023-02-02T06:38:15.804Z,51.216137
2023-02-02T06:39:15.616Z,51.216087
2023-02-02T06:40:15.608Z,51.216213
2023-02-02T06:41:15.645Z,51.216251
2023-02-02T06:42:21.778Z,51.216061
2023-02-02T06:43:17.587Z,51.216167
2023-02-02T06:44:15.586Z,51.216095
2023-02-02T06:45:15.609Z,51.216152
2023-02-02T06:46:15.621Z,51.216125
2023-02-02T06:47:15.571Z,51.216118
2023-02-02T06:48:15.553Z,51.216179
2023-02-02T06:49:15.550Z,51.216099
2023-02-02T06:50:15.553Z,51.216042
2023-02-02T06:51:15.564Z,51.216087
2023-02-02T06:52:15.542Z,51.216026
2023-02-02T06:53:15.522Z,51.215786
2023-02-02T06:54:15.512Z,51.215767
2023-02-02T06:55:15.519Z,51.215786
2023-02-02T06:56:15.896Z,51.215870
2023-02-02T06:57:15.506Z,51.215744
2023-02-02T06:58:15.493Z,51.215904
2023-02-02T06:59:15.482Z,51.215965
2023-02-02T07:00:15.479Z,51.215973
2023-02-02T07:01:15.648Z,51.215969
2023-02-02T07:02:15.616Z,51.215950
2023-02-02T07:03:15.458Z,51.215897
2023-02-02T07:04:15.452Z,51.215862
2023-02-02T07:05:15.459Z,51.216042
2023-02-02T07:06:15.444Z,51.216087
2023-02-02T07:07:15.474Z,51.216087
2023-02-02T07:08:15.441Z,51.216061
2023-02-02T07:09:15.443Z,51.216049
2023-02-02T07:11:13.104Z,51.216114
2023-02-02T07:11:16.839Z,51.216064
2023-02-02T07:12:16.507Z,51.216057
2023-02-02T07:13:15.401Z,51.215939
2023-02-02T07:14:15.393Z,51.215961
2023-02-02T07:15:15.396Z,51.215981
2023-02-02T07:16:15.447Z,51.215996
2023-02-02T07:17:15.477Z,51.216114
2023-02-02T07:18:15.365Z,51.216110
2023-02-02T07:19:15.361Z,51.216061
2023-02-02T07:20:15.376Z,51.216156
2023-02-02T07:21:15.345Z,51.216038
2023-02-02T07:22:15.343Z,51.216015
2023-02-02T07:23:15.345Z,51.216179
2023-02-02T07:24:15.328Z,51.216129
2023-02-02T07:25:15.312Z,51.216095
2023-02-02T07:26:15.318Z,51.216129
2023-02-02T07:27:15.321Z,51.216049
2023-02-02T07:28:15.308Z,51.216114
2023-02-02T07:29:15.325Z,51.216034
2023-02-02T07:30:15.281Z,51.215935
2023-02-02T07:31:15.466Z,51.216042
2023-02-02T07:32:15.324Z,51.216057
2023-02-02T07:33:15.277Z,51.215843
2023-02-02T07:34:15.268Z,51.216003
2023-02-02T07:35:15.251Z,51.216049
2023-02-02T07:36:15.243Z,51.216068
2023-02-02T07:37:15.262Z,51.216034
2023-02-02T07:38:15.246Z,51.216087
2023-02-02T07:39:15.232Z,51.216114
2023-02-02T07:40:15.218Z,51.216084
2023-02-02T07:41:15.222Z,51.216019
2023-02-02T07:42:15.204Z,51.216133
2023-02-02T07:43:15.209Z,51.216003
2023-02-02T07:44:15.193Z,51.216068
2023-02-02T07:45:26.774Z,51.216099
2023-02-02T07:46:16.206Z,51.216007
2023-02-02T07:47:15.168Z,51.215973
2023-02-02T07:48:15.165Z,51.216045
2023-02-02T07:49:15.182Z,51.216152
2023-02-02T07:50:15.148Z,51.216080
2023-02-02T07:51:15.140Z,51.216030
2023-02-02T07:52:15.137Z,51.216000
2023-02-02T07:53:15.130Z,51.215984
2023-02-02T07:54:15.152Z,51.216030
2023-02-02T07:55:15.231Z,51.216000
2023-02-02T07:56:16.115Z,51.215919
2023-02-02T07:57:15.096Z,51.216026
2023-02-02T07:58:15.095Z,51.216099
2023-02-02T07:59:15.216Z,51.216007
2023-02-02T08:00:15.091Z,51.216087
2023-02-02T08:01:15.109Z,51.216080
2023-02-02T08:02:15.071Z,51.215950
2023-02-02T08:03:15.195Z,51.216114
2023-02-02T08:04:15.075Z,51.216148
2023-02-02T08:05:15.055Z,51.216022
2023-02-02T08:06:15.046Z,51.215805
2023-02-02T08:07:15.201Z,51.215607
2023-02-02T08:08:16.078Z,51.215622
2023-02-02T08:09:15.019Z,51.215740
2023-02-02T08:10:15.010Z,51.215790
2023-02-02T08:11:15.015Z,51.215797
2023-02-02T08:12:15.022Z,51.215836
2023-02-02T08:13:15.026Z,51.215870
2023-02-02T08:14:15.023Z,51.215935
2023-02-02T08:15:14.999Z,51.215790
2023-02-02T08:16:15.048Z,51.215912
2023-02-02T08:17:14.974Z,51.216026
2023-02-02T08:18:14.961Z,51.216034
2023-02-02T08:19:14.986Z,51.216042
2023-02-02T08:20:14.952Z,51.215996
2023-02-02T08:21:14.942Z,51.216084
2023-02-02T08:22:14.956Z,51.216099
2023-02-02T08:23:14.928Z,51.216064
2023-02-02T08:24:14.931Z,51.216122
2023-02-02T08:25:14.927Z,51.216133
2023-02-02T08:26:14.932Z,51.216263
2023-02-02T08:27:14.899Z,51.216316
2023-02-02T08:28:14.900Z,51.216309
2023-02-02T08:29:14.891Z,51.216290
2023-02-02T08:30:14.916Z,51.216228
2023-02-02T08:31:14.952Z,51.216202
2023-02-02T08:32:14.933Z,51.216015
2023-02-02T08:33:14.915Z,51.215904
2023-02-02T08:34:14.854Z,51.215992
2023-02-02T08:35:14.866Z,51.215878
2023-02-02T08:36:14.832Z,51.215824
2023-02-02T08:37:14.829Z,51.215767
2023-02-02T08:38:14.823Z,51.215927
2023-02-02T08:39:15.823Z,51.216072
2023-02-02T08:40:14.860Z,51.216282
2023-02-02T08:41:14.853Z,51.216114
2023-02-02T08:42:14.813Z,51.216175
2023-02-02T08:43:16.452Z,51.216263
2023-02-02T08:44:14.785Z,51.216309
2023-02-02T08:46:04.565Z,51.216335
2023-02-02T08:46:16.257Z,51.216255
2023-02-02T08:47:14.800Z,51.216206
2023-02-02T08:48:14.763Z,51.216076
2023-02-02T08:49:14.751Z,51.216236
2023-02-02T08:50:14.745Z,51.216217
2023-02-02T08:51:14.757Z,51.216415
2023-02-02T08:52:14.722Z,51.216488
2023-02-02T08:53:14.717Z,51.216320
2023-02-02T08:54:14.724Z,51.216518
2023-02-02T08:55:14.726Z,51.216446
2023-02-02T08:56:14.740Z,51.216610
2023-02-02T08:57:14.695Z,51.216347
2023-02-02T08:58:14.689Z,51.216248
2023-02-02T08:59:14.680Z,51.215889
2023-02-02T09:00:15.680Z,51.216473
2023-02-02T09:01:14.771Z,51.216438
2023-02-02T09:02:14.686Z,51.216293
2023-02-02T09:03:14.651Z,51.216103
2023-02-02T09:04:14.655Z,51.216000
2023-02-02T09:05:14.651Z,51.216084
2023-02-02T09:06:14.652Z,51.216049
2023-02-02T09:07:14.651Z,51.216164
2023-02-02T09:08:14.658Z,51.216091
2023-02-02T09:09:14.625Z,51.216042
2023-02-02T09:10:14.599Z,51.215771
2023-02-02T09:11:14.611Z,51.215729
2023-02-02T09:12:14.612Z,51.215694
2023-02-02T09:13:14.680Z,51.215935
2023-02-02T09:14:14.599Z,51.216286
2023-02-02T09:15:14.582Z,51.216316
2023-02-02T09:16:14.613Z,51.216335
2023-02-02T09:17:14.616Z,51.216221
2023-02-02T09:18:14.596Z,51.216019
2023-02-02T09:19:14.557Z,51.215996
2023-02-02T09:20:14.538Z,51.215961
2023-02-02T09:21:14.550Z,51.215992
2023-02-02T09:22:14.548Z,51.216122
2023-02-02T09:23:14.524Z,51.216236
2023-02-02T09:24:14.542Z,51.216175
2023-02-02T09:25:14.514Z,51.216240
2023-02-02T09:26:14.528Z,51.216232
2023-02-02T09:27:14.497Z,51.216152
2023-02-02T09:28:14.503Z,51.216125
2023-02-02T09:29:14.522Z,51.216263
2023-02-02T09:30:14.468Z,51.216286
2023-02-02T09:31:14.469Z,51.215816
2023-02-02T09:32:14.508Z,51.215439
2023-02-02T09:33:14.476Z,51.215603
2023-02-02T09:34:14.462Z,51.215874
2023-02-02T09:35:14.463Z,51.215977
2023-02-02T09:36:14.436Z,51.215996
2023-02-02T09:37:14.458Z,51.215992
2023-02-02T09:38:14.431Z,51.216106
2023-02-02T09:39:14.442Z,51.216076
2023-02-02T09:40:14.419Z,51.216026
2023-02-02T09:41:14.422Z,51.216095
2023-02-02T09:42:14.413Z,51.216003
2023-02-02T09:43:14.399Z,51.216167
2023-02-02T09:44:14.405Z,51.216209
2023-02-02T09:45:14.395Z,51.216137
2023-02-02T09:46:14.415Z,51.215984
2023-02-02T09:47:14.385Z,51.216152
2023-02-02T09:48:14.362Z,51.216053
2023-02-02T09:49:14.362Z,51.216087
2023-02-02T09:50:14.343Z,51.216099
2023-02-02T09:51:14.349Z,51.216080
2023-02-02T09:52:14.331Z,51.216038
2023-02-02T09:53:14.322Z,51.216106
2023-02-02T09:54:14.319Z,51.216175
2023-02-02T09:55:14.334Z,51.216099
2023-02-02T09:56:14.319Z,51.216011
2023-02-02T09:57:14.339Z,51.215729
2023-02-02T09:58:14.285Z,51.215839
2023-02-02T09:59:20.411Z,51.216099
2023-02-02T10:00:16.324Z,51.216000
2023-02-02T10:01:14.327Z,51.216053
2023-02-02T10:02:14.258Z,51.216072
2023-02-02T10:03:14.252Z,51.216114
2023-02-02T10:04:14.285Z,51.215954
2023-02-02T10:05:14.258Z,51.215958
2023-02-02T10:06:14.241Z,51.215996
2023-02-02T10:07:14.251Z,51.216011
2023-02-02T10:08:18.461Z,51.216129
2023-02-02T10:09:16.243Z,51.216007
2023-02-02T10:10:14.551Z,51.216045
2023-02-02T10:11:14.214Z,51.216061
2023-02-02T10:12:14.201Z,51.216156
2023-02-02T10:13:14.217Z,51.216045
2023-02-02T10:14:14.188Z,51.216164
2023-02-02T10:15:14.188Z,51.216206
2023-02-02T10:16:14.210Z,51.215786
2023-02-02T10:17:14.169Z,51.215843
2023-02-02T10:18:14.154Z,51.215958
2023-02-02T10:19:14.173Z,51.216022
2023-02-02T10:20:14.167Z,51.216045
2023-02-02T10:21:14.148Z,51.215965
2023-02-02T10:22:14.130Z,51.215813
2023-02-02T10:23:14.139Z,51.215950
2023-02-02T10:24:14.123Z,51.216152
2023-02-02T10:25:14.106Z,51.216156
2023-02-02T10:26:14.108Z,51.216049
2023-02-02T10:27:14.110Z,51.216068
2023-02-02T10:28:14.096Z,51.216084
2023-02-02T10:29:14.071Z,51.216221
2023-02-02T10:30:14.079Z,51.216133
2023-02-02T10:31:14.170Z,51.216061
2023-02-02T10:32:14.086Z,51.216038
2023-02-02T10:33:14.341Z,51.216084
2023-02-02T10:34:14.046Z,51.216095
2023-02-02T10:35:14.948Z,51.216125
2023-02-02T10:36:15.239Z,51.216171
2023-02-02T10:37:14.031Z,51.216110
2023-02-02T10:38:14.019Z,51.216030
2023-02-02T10:39:14.031Z,51.216068
2023-02-02T10:40:14.010Z,51.216103
2023-02-02T10:41:14.040Z,51.216019
2023-02-02T10:42:14.007Z,51.216080
2023-02-02T10:43:13.995Z,51.216129
2023-02-02T10:44:14.016Z,51.216129
2023-02-02T10:45:13.992Z,51.216103
2023-02-02T10:46:13.994Z,51.216064
2023-02-02T10:47:13.968Z,51.216125
2023-02-02T10:48:13.969Z,51.216118
2023-02-02T10:49:13.966Z,51.216152
2023-02-02T10:50:14.031Z,51.216309
2023-02-02T10:51:13.950Z,51.216148
2023-02-02T10:52:13.932Z,51.216087
2023-02-02T10:53:13.940Z,51.216129
2023-02-02T10:54:14.917Z,51.216030
2023-02-02T10:55:13.944Z,51.216011
2023-02-02T10:56:13.899Z,51.216133
2023-02-02T10:57:13.903Z,51.216164
2023-02-02T10:58:13.908Z,51.216141
2023-02-02T10:59:13.897Z,51.216171
2023-02-02T11:00:14.911Z,51.216106
2023-02-02T11:01:14.895Z,51.216141
2023-02-02T11:02:20.636Z,51.216187
2023-02-02T11:03:15.956Z,51.216011
2023-02-02T11:04:13.850Z,51.216099
2023-02-02T11:05:13.864Z,51.216114
2023-02-02T11:06:13.854Z,51.216084
2023-02-02T11:07:13.829Z,51.216103
2023-02-02T11:08:13.828Z,51.216076
2023-02-02T11:09:13.830Z,51.216045
2023-02-02T11:10:13.823Z,51.215988
2023-02-02T11:11:13.807Z,51.216076
2023-02-02T11:12:13.797Z,51.216076
2023-02-02T11:13:13.797Z,51.216179
2023-02-02T11:14:13.793Z,51.216000
2023-02-02T11:15:13.793Z,51.216042
2023-02-02T11:16:13.834Z,51.215961
2023-02-02T11:17:13.791Z,51.215996
2023-02-02T11:18:13.761Z,51.215935
2023-02-02T11:19:13.746Z,51.215919
2023-02-02T11:20:13.749Z,51.215958
2023-02-02T11:21:13.738Z,51.215809
2023-02-02T11:22:13.755Z,51.215874
2023-02-02T11:23:13.725Z,51.215931
2023-02-02T11:24:13.714Z,51.216053